sensor_id;sensor_type;location;lat;lon;timestamp;P1;durP1;ratioP1;P2;durP2;ratioP2
69305;SDS011;56427;51.580;4.656;2023-05-10T00:00:04;46.17;;;15.90;;
69305;SDS011;56427;51.580;4.656;2023-05-10T00:02:30;38.73;;;14.43;;
69305;SDS011;56427;51.580;4.656;2023-05-10T00:04:56;48.28;;;15.55;;
69305;SDS011;56427;51.580;4.656;2023-05-10T00:07:21;43.90;;;15.10;;
69305;SDS011;56427;51.580;4.656;2023-05-10T00:09:47;52.13;;;16.70;;
69305;SDS011;56427;51.580;4.656;2023-05-10T00:12:12;40.57;;;14.97;;
69305;SDS011;56427;51.580;4.656;2023-05-10T00:14:38;48.83;;;16.30;;
69305;SDS011;56427;51.580;4.656;2023-05-10T00:17:03;40.60;;;16.20;;
69305;SDS011;56427;51.580;4.656;2023-05-10T00:19:29;51.63;;;19.83;;
69305;SDS011;56427;51.580;4.656;2023-05-10T00:21:54;45.67;;;20.73;;
69305;SDS011;56427;51.580;4.656;2023-05-10T00:24:19;50.35;;;21.27;;
69305;SDS011;56427;51.580;4.656;2023-05-10T00:26:45;43.47;;;22.13;;
69305;SDS011;56427;51.580;4.656;2023-05-10T00:29:11;70.60;;;28.57;;
69305;SDS011;56427;51.580;4.656;2023-05-10T00:31:36;77.05;;;29.52;;
69305;SDS011;56427;51.580;4.656;2023-05-10T00:34:01;48.20;;;25.70;;
69305;SDS011;56427;51.580;4.656;2023-05-10T00:36:27;45.87;;;25.23;;
69305;SDS011;56427;51.580;4.656;2023-05-10T00:38:53;66.03;;;27.37;;
69305;SDS011;56427;51.580;4.656;2023-05-10T00:41:19;57.30;;;26.30;;
69305;SDS011;56427;51.580;4.656;2023-05-10T00:43:46;73.50;;;31.13;;
69305;SDS011;56427;51.580;4.656;2023-05-10T00:46:11;60.83;;;27.67;;
69305;SDS011;56427;51.580;4.656;2023-05-10T00:48:37;89.35;;;30.83;;
69305;SDS011;56427;51.580;4.656;2023-05-10T00:51:03;89.30;;;31.23;;
69305;SDS011;56427;51.580;4.656;2023-05-10T00:53:28;71.80;;;29.27;;
69305;SDS011;56427;51.580;4.656;2023-05-10T00:55:56;86.70;;;33.22;;
69305;SDS011;56427;51.580;4.656;2023-05-10T00:58:21;97.50;;;33.03;;
69305;SDS011;56427;51.580;4.656;2023-05-10T01:00:48;89.22;;;33.45;;
69305;SDS011;56427;51.580;4.656;2023-05-10T01:03:15;85.90;;;31.83;;
69305;SDS011;56427;51.580;4.656;2023-05-10T01:05:41;99.95;;;33.17;;
69305;SDS011;56427;51.580;4.656;2023-05-10T01:08:07;104.83;;;34.57;;
69305;SDS011;56427;51.580;4.656;2023-05-10T01:10:33;78.97;;;32.03;;
69305;SDS011;56427;51.580;4.656;2023-05-10T01:12:59;88.22;;;30.70;;
69305;SDS011;56427;51.580;4.656;2023-05-10T01:15:25;73.37;;;29.33;;
69305;SDS011;56427;51.580;4.656;2023-05-10T01:17:51;73.87;;;30.03;;
69305;SDS011;56427;51.580;4.656;2023-05-10T01:20:18;79.60;;;29.55;;
69305;SDS011;56427;51.580;4.656;2023-05-10T01:23:02;67.95;;;29.63;;
69305;SDS011;56427;51.580;4.656;2023-05-10T01:25:56;77.53;;;29.17;;
69305;SDS011;56427;51.580;4.656;2023-05-10T01:28:42;69.28;;;27.77;;
69305;SDS011;56427;51.580;4.656;2023-05-10T01:34:48;68.68;;;26.40;;
69305;SDS011;56427;51.580;4.656;2023-05-10T01:37:21;63.67;;;26.38;;
69305;SDS011;56427;51.580;4.656;2023-05-10T01:39:55;59.67;;;25.13;;
69305;SDS011;56427;51.580;4.656;2023-05-10T01:42:29;56.10;;;24.30;;
69305;SDS011;56427;51.580;4.656;2023-05-10T01:45:11;58.90;;;25.02;;
69305;SDS011;56427;51.580;4.656;2023-05-10T01:47:44;66.50;;;25.40;;
69305;SDS011;56427;51.580;4.656;2023-05-10T01:50:24;57.80;;;24.60;;
69305;SDS011;56427;51.580;4.656;2023-05-10T01:52:54;60.70;;;24.37;;
69305;SDS011;56427;51.580;4.656;2023-05-10T01:55:23;60.15;;;25.17;;
69305;SDS011;56427;51.580;4.656;2023-05-10T01:57:52;63.40;;;25.90;;
69305;SDS011;56427;51.580;4.656;2023-05-10T02:00:25;62.47;;;25.80;;
69305;SDS011;56427;51.580;4.656;2023-05-10T02:02:52;65.25;;;26.50;;
69305;SDS011;56427;51.580;4.656;2023-05-10T02:05:19;62.73;;;26.10;;
69305;SDS011;56427;51.580;4.656;2023-05-10T02:07:46;60.63;;;25.20;;
69305;SDS011;56427;51.580;4.656;2023-05-10T02:10:12;66.07;;;26.23;;
69305;SDS011;56427;51.580;4.656;2023-05-10T02:12:40;59.45;;;25.40;;
69305;SDS011;56427;51.580;4.656;2023-05-10T02:15:07;62.50;;;24.58;;
69305;SDS011;56427;51.580;4.656;2023-05-10T02:17:34;60.40;;;25.93;;
69305;SDS011;56427;51.580;4.656;2023-05-10T02:20:01;55.55;;;23.95;;
69305;SDS011;56427;51.580;4.656;2023-05-10T02:22:28;55.95;;;24.80;;
69305;SDS011;56427;51.580;4.656;2023-05-10T02:24:54;62.88;;;25.30;;
69305;SDS011;56427;51.580;4.656;2023-05-10T02:27:22;60.10;;;24.37;;
69305;SDS011;56427;51.580;4.656;2023-05-10T02:29:49;56.78;;;23.70;;
69305;SDS011;56427;51.580;4.656;2023-05-10T02:32:16;68.70;;;24.00;;
69305;SDS011;56427;51.580;4.656;2023-05-10T02:34:43;62.40;;;25.15;;
69305;SDS011;56427;51.580;4.656;2023-05-10T02:37:11;60.38;;;24.85;;
69305;SDS011;56427;51.580;4.656;2023-05-10T02:39:39;64.03;;;26.67;;
69305;SDS011;56427;51.580;4.656;2023-05-10T02:42:10;61.80;;;25.10;;
69305;SDS011;56427;51.580;4.656;2023-05-10T02:44:45;70.35;;;27.33;;
69305;SDS011;56427;51.580;4.656;2023-05-10T02:47:14;63.35;;;26.05;;
69305;SDS011;56427;51.580;4.656;2023-05-10T02:49:39;66.77;;;28.07;;
69305;SDS011;56427;51.580;4.656;2023-05-10T02:52:06;68.97;;;28.73;;
69305;SDS011;56427;51.580;4.656;2023-05-10T02:54:34;64.78;;;26.17;;
69305;SDS011;56427;51.580;4.656;2023-05-10T02:57:06;68.00;;;29.63;;
69305;SDS011;56427;51.580;4.656;2023-05-10T02:59:34;61.93;;;27.77;;
69305;SDS011;56427;51.580;4.656;2023-05-10T03:01:59;56.72;;;26.27;;
69305;SDS011;56427;51.580;4.656;2023-05-10T03:04:25;59.50;;;26.63;;
69305;SDS011;56427;51.580;4.656;2023-05-10T03:06:51;58.50;;;28.52;;
69305;SDS011;56427;51.580;4.656;2023-05-10T03:09:16;64.87;;;29.10;;
69305;SDS011;56427;51.580;4.656;2023-05-10T03:17:23;62.28;;;28.75;;
69305;SDS011;56427;51.580;4.656;2023-05-10T03:20:04;58.42;;;27.67;;
69305;SDS011;56427;51.580;4.656;2023-05-10T03:22:38;58.33;;;27.40;;
69305;SDS011;56427;51.580;4.656;2023-05-10T03:25:10;60.33;;;27.10;;
69305;SDS011;56427;51.580;4.656;2023-05-10T03:27:36;59.20;;;27.27;;
69305;SDS011;56427;51.580;4.656;2023-05-10T03:30:05;56.65;;;26.75;;
69305;SDS011;56427;51.580;4.656;2023-05-10T03:32:33;68.35;;;29.00;;
69305;SDS011;56427;51.580;4.656;2023-05-10T03:35:00;65.65;;;26.90;;
69305;SDS011;56427;51.580;4.656;2023-05-10T03:37:25;66.93;;;28.77;;
69305;SDS011;56427;51.580;4.656;2023-05-10T03:39:51;62.67;;;27.77;;
69305;SDS011;56427;51.580;4.656;2023-05-10T03:42:16;66.80;;;27.37;;
69305;SDS011;56427;51.580;4.656;2023-05-10T03:44:42;56.15;;;26.33;;
69305;SDS011;56427;51.580;4.656;2023-05-10T03:47:08;62.20;;;25.13;;
69305;SDS011;56427;51.580;4.656;2023-05-10T03:49:33;63.95;;;26.83;;
69305;SDS011;56427;51.580;4.656;2023-05-10T03:51:59;66.47;;;27.27;;
69305;SDS011;56427;51.580;4.656;2023-05-10T03:54:24;56.57;;;24.50;;
69305;SDS011;56427;51.580;4.656;2023-05-10T03:56:50;42.22;;;23.10;;
69305;SDS011;56427;51.580;4.656;2023-05-10T03:59:15;58.43;;;25.43;;
69305;SDS011;56427;51.580;4.656;2023-05-10T04:01:41;45.63;;;23.00;;
69305;SDS011;56427;51.580;4.656;2023-05-10T04:04:06;48.90;;;23.23;;
69305;SDS011;56427;51.580;4.656;2023-05-10T04:06:32;49.28;;;24.17;;
69305;SDS011;56427;51.580;4.656;2023-05-10T04:08:57;50.33;;;25.13;;
69305;SDS011;56427;51.580;4.656;2023-05-10T04:11:25;73.10;;;26.60;;
69305;SDS011;56427;51.580;4.656;2023-05-10T04:13:50;60.17;;;26.97;;
69305;SDS011;56427;51.580;4.656;2023-05-10T04:16:17;61.85;;;28.30;;
69305;SDS011;56427;51.580;4.656;2023-05-10T04:18:42;72.45;;;29.45;;
69305;SDS011;56427;51.580;4.656;2023-05-10T04:21:11;66.50;;;28.27;;
69305;SDS011;56427;51.580;4.656;2023-05-10T04:23:38;68.28;;;28.17;;
69305;SDS011;56427;51.580;4.656;2023-05-10T04:26:04;65.17;;;28.37;;
69305;SDS011;56427;51.580;4.656;2023-05-10T04:28:29;69.23;;;29.43;;
69305;SDS011;56427;51.580;4.656;2023-05-10T04:31:05;69.70;;;28.98;;
69305;SDS011;56427;51.580;4.656;2023-05-10T04:33:32;72.33;;;30.33;;
69305;SDS011;56427;51.580;4.656;2023-05-10T04:35:58;80.22;;;32.60;;
69305;SDS011;56427;51.580;4.656;2023-05-10T04:38:24;86.68;;;33.30;;
69305;SDS011;56427;51.580;4.656;2023-05-10T04:40:50;90.90;;;34.97;;
69305;SDS011;56427;51.580;4.656;2023-05-10T04:43:15;90.50;;;35.95;;
69305;SDS011;56427;51.580;4.656;2023-05-10T04:45:41;83.77;;;36.47;;
69305;SDS011;56427;51.580;4.656;2023-05-10T04:48:07;90.50;;;37.55;;
69305;SDS011;56427;51.580;4.656;2023-05-10T04:50:32;94.53;;;36.57;;
69305;SDS011;56427;51.580;4.656;2023-05-10T04:52:58;84.87;;;36.50;;
69305;SDS011;56427;51.580;4.656;2023-05-10T04:55:23;79.40;;;34.30;;
69305;SDS011;56427;51.580;4.656;2023-05-10T04:57:49;78.10;;;34.63;;
69305;SDS011;56427;51.580;4.656;2023-05-10T05:00:14;75.43;;;31.60;;
69305;SDS011;56427;51.580;4.656;2023-05-10T05:02:43;62.85;;;29.58;;
69305;SDS011;56427;51.580;4.656;2023-05-10T05:05:12;59.77;;;26.33;;
69305;SDS011;56427;51.580;4.656;2023-05-10T05:07:37;58.65;;;25.83;;
69305;SDS011;56427;51.580;4.656;2023-05-10T05:10:06;43.55;;;22.95;;
69305;SDS011;56427;51.580;4.656;2023-05-10T05:12:34;42.05;;;19.40;;
69305;SDS011;56427;51.580;4.656;2023-05-10T05:15:00;36.10;;;17.50;;
69305;SDS011;56427;51.580;4.656;2023-05-10T05:17:26;38.63;;;16.45;;
69305;SDS011;56427;51.580;4.656;2023-05-10T05:19:51;34.03;;;16.43;;
69305;SDS011;56427;51.580;4.656;2023-05-10T05:22:17;34.40;;;16.45;;
69305;SDS011;56427;51.580;4.656;2023-05-10T05:24:44;32.90;;;16.17;;
69305;SDS011;56427;51.580;4.656;2023-05-10T05:27:09;31.77;;;16.42;;
69305;SDS011;56427;51.580;4.656;2023-05-10T05:29:35;32.83;;;16.33;;
69305;SDS011;56427;51.580;4.656;2023-05-10T05:32:00;26.00;;;15.17;;
69305;SDS011;56427;51.580;4.656;2023-05-10T05:34:26;33.27;;;13.53;;
69305;SDS011;56427;51.580;4.656;2023-05-10T05:36:52;24.02;;;12.98;;
69305;SDS011;56427;51.580;4.656;2023-05-10T05:39:17;22.33;;;11.90;;
69305;SDS011;56427;51.580;4.656;2023-05-10T05:41:42;22.20;;;11.43;;
69305;SDS011;56427;51.580;4.656;2023-05-10T05:44:08;23.90;;;11.68;;
69305;SDS011;56427;51.580;4.656;2023-05-10T05:46:33;22.33;;;10.67;;
69305;SDS011;56427;51.580;4.656;2023-05-10T05:48:59;25.58;;;10.65;;
69305;SDS011;56427;51.580;4.656;2023-05-10T05:51:25;26.57;;;10.73;;
69305;SDS011;56427;51.580;4.656;2023-05-10T05:53:50;21.33;;;10.67;;
69305;SDS011;56427;51.580;4.656;2023-05-10T05:56:16;20.48;;;10.98;;
69305;SDS011;56427;51.580;4.656;2023-05-10T05:58:48;18.55;;;10.02;;
69305;SDS011;56427;51.580;4.656;2023-05-10T06:01:14;17.43;;;10.43;;
69305;SDS011;56427;51.580;4.656;2023-05-10T06:03:40;23.08;;;10.05;;
69305;SDS011;56427;51.580;4.656;2023-05-10T06:06:05;19.17;;;9.37;;
69305;SDS011;56427;51.580;4.656;2023-05-10T06:08:31;16.47;;;9.20;;
69305;SDS011;56427;51.580;4.656;2023-05-10T06:10:56;22.03;;;9.77;;
69305;SDS011;56427;51.580;4.656;2023-05-10T06:13:21;17.40;;;9.57;;
69305;SDS011;56427;51.580;4.656;2023-05-10T06:15:47;18.20;;;8.85;;
69305;SDS011;56427;51.580;4.656;2023-05-10T06:18:12;14.37;;;9.00;;
69305;SDS011;56427;51.580;4.656;2023-05-10T06:20:37;20.90;;;8.80;;
69305;SDS011;56427;51.580;4.656;2023-05-10T06:23:04;19.23;;;8.57;;
69305;SDS011;56427;51.580;4.656;2023-05-10T06:25:29;18.13;;;8.50;;
69305;SDS011;56427;51.580;4.656;2023-05-10T06:27:55;17.93;;;8.33;;
69305;SDS011;56427;51.580;4.656;2023-05-10T06:30:23;16.58;;;8.63;;
69305;SDS011;56427;51.580;4.656;2023-05-10T06:32:52;16.85;;;8.52;;
69305;SDS011;56427;51.580;4.656;2023-05-10T06:35:18;14.67;;;7.80;;
69305;SDS011;56427;51.580;4.656;2023-05-10T06:37:44;18.00;;;8.13;;
69305;SDS011;56427;51.580;4.656;2023-05-10T06:40:09;16.57;;;7.70;;
69305;SDS011;56427;51.580;4.656;2023-05-10T06:42:35;17.63;;;8.17;;
69305;SDS011;56427;51.580;4.656;2023-05-10T06:45:00;19.57;;;9.00;;
69305;SDS011;56427;51.580;4.656;2023-05-10T06:47:26;17.27;;;8.70;;
69305;SDS011;56427;51.580;4.656;2023-05-10T06:49:51;16.10;;;9.17;;
69305;SDS011;56427;51.580;4.656;2023-05-10T06:52:16;17.43;;;9.13;;
69305;SDS011;56427;51.580;4.656;2023-05-10T06:54:42;17.80;;;9.63;;
69305;SDS011;56427;51.580;4.656;2023-05-10T06:57:07;17.87;;;10.30;;
69305;SDS011;56427;51.580;4.656;2023-05-10T06:59:33;14.47;;;9.50;;
69305;SDS011;56427;51.580;4.656;2023-05-10T07:01:58;17.27;;;10.17;;
69305;SDS011;56427;51.580;4.656;2023-05-10T07:04:23;16.77;;;10.70;;
69305;SDS011;56427;51.580;4.656;2023-05-10T07:06:49;21.03;;;10.67;;
69305;SDS011;56427;51.580;4.656;2023-05-10T07:09:14;18.70;;;10.65;;
69305;SDS011;56427;51.580;4.656;2023-05-10T07:11:40;17.20;;;11.17;;
69305;SDS011;56427;51.580;4.656;2023-05-10T07:14:06;16.67;;;9.80;;
69305;SDS011;56427;51.580;4.656;2023-05-10T07:16:31;15.50;;;9.33;;
69305;SDS011;56427;51.580;4.656;2023-05-10T07:18:57;18.73;;;9.33;;
69305;SDS011;56427;51.580;4.656;2023-05-10T07:21:22;16.37;;;9.43;;
69305;SDS011;56427;51.580;4.656;2023-05-10T07:23:49;14.70;;;8.93;;
69305;SDS011;56427;51.580;4.656;2023-05-10T07:26:15;11.55;;;7.93;;
69305;SDS011;56427;51.580;4.656;2023-05-10T07:28:41;11.35;;;7.43;;
69305;SDS011;56427;51.580;4.656;2023-05-10T07:31:06;14.23;;;8.67;;
69305;SDS011;56427;51.580;4.656;2023-05-10T07:33:32;14.27;;;8.50;;
69305;SDS011;56427;51.580;4.656;2023-05-10T07:35:57;16.45;;;8.43;;
69305;SDS011;56427;51.580;4.656;2023-05-10T07:38:22;16.20;;;7.77;;
69305;SDS011;56427;51.580;4.656;2023-05-10T07:40:48;11.77;;;7.67;;
69305;SDS011;56427;51.580;4.656;2023-05-10T07:43:13;14.10;;;8.07;;
69305;SDS011;56427;51.580;4.656;2023-05-10T07:45:39;12.67;;;7.47;;
69305;SDS011;56427;51.580;4.656;2023-05-10T07:48:04;12.63;;;7.85;;
69305;SDS011;56427;51.580;4.656;2023-05-10T07:50:30;18.13;;;8.33;;
69305;SDS011;56427;51.580;4.656;2023-05-10T07:52:55;15.53;;;9.40;;
69305;SDS011;56427;51.580;4.656;2023-05-10T07:55:21;12.27;;;7.47;;
69305;SDS011;56427;51.580;4.656;2023-05-10T07:57:47;10.77;;;6.90;;
69305;SDS011;56427;51.580;4.656;2023-05-10T08:00:13;12.77;;;7.63;;
69305;SDS011;56427;51.580;4.656;2023-05-10T08:02:43;11.32;;;6.35;;
69305;SDS011;56427;51.580;4.656;2023-05-10T08:05:08;12.40;;;7.17;;
69305;SDS011;56427;51.580;4.656;2023-05-10T08:07:34;13.10;;;6.18;;
69305;SDS011;56427;51.580;4.656;2023-05-10T08:10:00;12.73;;;6.55;;
69305;SDS011;56427;51.580;4.656;2023-05-10T08:12:26;12.13;;;6.17;;
69305;SDS011;56427;51.580;4.656;2023-05-10T08:14:51;9.77;;;5.77;;
69305;SDS011;56427;51.580;4.656;2023-05-10T08:17:16;13.03;;;6.60;;
69305;SDS011;56427;51.580;4.656;2023-05-10T08:19:42;11.67;;;6.10;;
69305;SDS011;56427;51.580;4.656;2023-05-10T08:22:07;10.80;;;6.57;;
69305;SDS011;56427;51.580;4.656;2023-05-10T08:24:33;10.88;;;6.88;;
69305;SDS011;56427;51.580;4.656;2023-05-10T08:27:03;11.23;;;6.83;;
69305;SDS011;56427;51.580;4.656;2023-05-10T08:29:31;12.95;;;7.20;;
69305;SDS011;56427;51.580;4.656;2023-05-10T08:31:57;10.18;;;6.22;;
69305;SDS011;56427;51.580;4.656;2023-05-10T08:34:22;9.73;;;6.57;;
69305;SDS011;56427;51.580;4.656;2023-05-10T08:36:48;12.35;;;6.55;;
69305;SDS011;56427;51.580;4.656;2023-05-10T08:39:14;15.87;;;7.20;;
69305;SDS011;56427;51.580;4.656;2023-05-10T08:41:39;10.00;;;5.87;;
69305;SDS011;56427;51.580;4.656;2023-05-10T08:44:07;6.40;;;4.20;;
69305;SDS011;56427;51.580;4.656;2023-05-10T08:46:34;9.82;;;4.45;;
69305;SDS011;56427;51.580;4.656;2023-05-10T08:49:03;8.77;;;4.70;;
69305;SDS011;56427;51.580;4.656;2023-05-10T08:51:29;8.30;;;4.73;;
69305;SDS011;56427;51.580;4.656;2023-05-10T08:54:01;8.68;;;4.85;;
69305;SDS011;56427;51.580;4.656;2023-05-10T08:56:31;8.07;;;4.75;;
69305;SDS011;56427;51.580;4.656;2023-05-10T08:58:58;6.50;;;3.53;;
69305;SDS011;56427;51.580;4.656;2023-05-10T09:01:24;7.85;;;4.00;;
69305;SDS011;56427;51.580;4.656;2023-05-10T09:03:50;6.70;;;3.70;;
69305;SDS011;56427;51.580;4.656;2023-05-10T09:06:15;7.23;;;4.47;;
69305;SDS011;56427;51.580;4.656;2023-05-10T09:08:41;7.47;;;3.60;;
69305;SDS011;56427;51.580;4.656;2023-05-10T09:11:11;9.88;;;4.05;;
69305;SDS011;56427;51.580;4.656;2023-05-10T09:13:37;7.40;;;4.50;;
69305;SDS011;56427;51.580;4.656;2023-05-10T09:16:03;8.27;;;5.18;;
69305;SDS011;56427;51.580;4.656;2023-05-10T09:18:29;8.20;;;5.10;;
69305;SDS011;56427;51.580;4.656;2023-05-10T09:20:54;8.00;;;4.77;;
69305;SDS011;56427;51.580;4.656;2023-05-10T09:23:20;9.40;;;5.17;;
69305;SDS011;56427;51.580;4.656;2023-05-10T09:25:45;7.77;;;4.90;;
69305;SDS011;56427;51.580;4.656;2023-05-10T09:28:12;8.55;;;4.00;;
69305;SDS011;56427;51.580;4.656;2023-05-10T09:30:37;7.25;;;4.00;;
69305;SDS011;56427;51.580;4.656;2023-05-10T09:33:03;5.13;;;3.00;;
69305;SDS011;56427;51.580;4.656;2023-05-10T09:35:29;4.68;;;2.63;;
69305;SDS011;56427;51.580;4.656;2023-05-10T09:37:57;5.33;;;2.83;;
69305;SDS011;56427;51.580;4.656;2023-05-10T09:40:25;5.85;;;2.97;;
69305;SDS011;56427;51.580;4.656;2023-05-10T09:45:28;5.28;;;3.03;;
69305;SDS011;56427;51.580;4.656;2023-05-10T09:47:55;8.73;;;3.40;;
69305;SDS011;56427;51.580;4.656;2023-05-10T09:50:21;6.13;;;3.20;;
69305;SDS011;56427;51.580;4.656;2023-05-10T09:52:51;6.50;;;3.55;;
69305;SDS011;56427;51.580;4.656;2023-05-10T09:55:18;8.38;;;3.97;;
69305;SDS011;56427;51.580;4.656;2023-05-10T09:57:45;6.13;;;3.88;;
69305;SDS011;56427;51.580;4.656;2023-05-10T10:00:16;6.63;;;4.03;;
69305;SDS011;56427;51.580;4.656;2023-05-10T10:02:48;4.63;;;3.37;;
69305;SDS011;56427;51.580;4.656;2023-05-10T10:05:20;7.43;;;3.40;;
69305;SDS011;56427;51.580;4.656;2023-05-10T10:07:46;5.60;;;2.83;;
69305;SDS011;56427;51.580;4.656;2023-05-10T10:10:14;5.97;;;2.95;;
69305;SDS011;56427;51.580;4.656;2023-05-10T10:12:41;7.93;;;2.90;;
69305;SDS011;56427;51.580;4.656;2023-05-10T10:15:07;4.50;;;2.85;;
69305;SDS011;56427;51.580;4.656;2023-05-10T10:17:34;4.78;;;2.92;;
69305;SDS011;56427;51.580;4.656;2023-05-10T10:20:02;5.05;;;3.42;;
69305;SDS011;56427;51.580;4.656;2023-05-10T10:22:28;6.23;;;3.10;;
69305;SDS011;56427;51.580;4.656;2023-05-10T10:24:53;7.38;;;3.47;;
69305;SDS011;56427;51.580;4.656;2023-05-10T10:28:03;6.50;;;3.43;;
69305;SDS011;56427;51.580;4.656;2023-05-10T10:36:02;5.88;;;3.88;;
69305;SDS011;56427;51.580;4.656;2023-05-10T10:38:54;6.73;;;4.40;;
69305;SDS011;56427;51.580;4.656;2023-05-10T10:50:08;6.25;;;3.72;;
69305;SDS011;56427;51.580;4.656;2023-05-10T10:57:32;7.93;;;4.13;;
69305;SDS011;56427;51.580;4.656;2023-05-10T11:03:06;7.25;;;4.10;;
69305;SDS011;56427;51.580;4.656;2023-05-10T11:08:00;5.22;;;3.05;;
69305;SDS011;56427;51.580;4.656;2023-05-10T11:10:33;10.43;;;3.50;;
69305;SDS011;56427;51.580;4.656;2023-05-10T11:13:03;9.40;;;3.40;;
69305;SDS011;56427;51.580;4.656;2023-05-10T11:15:31;6.28;;;3.17;;
69305;SDS011;56427;51.580;4.656;2023-05-10T11:17:57;9.25;;;3.45;;
69305;SDS011;56427;51.580;4.656;2023-05-10T11:20:23;5.90;;;3.00;;
69305;SDS011;56427;51.580;4.656;2023-05-10T11:22:58;6.82;;;3.78;;
69305;SDS011;56427;51.580;4.656;2023-05-10T11:25:40;6.53;;;3.75;;
69305;SDS011;56427;51.580;4.656;2023-05-10T11:28:09;6.75;;;3.55;;
69305;SDS011;56427;51.580;4.656;2023-05-10T11:30:39;7.43;;;3.97;;
69305;SDS011;56427;51.580;4.656;2023-05-10T11:33:05;9.07;;;4.05;;
69305;SDS011;56427;51.580;4.656;2023-05-10T11:35:39;10.50;;;3.35;;
69305;SDS011;56427;51.580;4.656;2023-05-10T11:38:06;9.85;;;3.30;;
69305;SDS011;56427;51.580;4.656;2023-05-10T11:40:35;4.90;;;2.67;;
69305;SDS011;56427;51.580;4.656;2023-05-10T11:43:02;7.13;;;2.73;;
69305;SDS011;56427;51.580;4.656;2023-05-10T11:45:28;8.05;;;3.13;;
69305;SDS011;56427;51.580;4.656;2023-05-10T11:47:57;5.22;;;2.53;;
69305;SDS011;56427;51.580;4.656;2023-05-10T11:50:23;5.40;;;2.15;;
69305;SDS011;56427;51.580;4.656;2023-05-10T11:52:55;5.57;;;2.22;;
69305;SDS011;56427;51.580;4.656;2023-05-10T11:55:21;5.67;;;2.47;;
69305;SDS011;56427;51.580;4.656;2023-05-10T11:57:53;5.75;;;2.80;;
69305;SDS011;56427;51.580;4.656;2023-05-10T12:00:19;7.30;;;4.50;;
69305;SDS011;56427;51.580;4.656;2023-05-10T12:02:45;6.85;;;4.35;;
69305;SDS011;56427;51.580;4.656;2023-05-10T12:05:11;8.02;;;4.38;;
69305;SDS011;56427;51.580;4.656;2023-05-10T12:07:37;8.63;;;4.60;;
69305;SDS011;56427;51.580;4.656;2023-05-10T12:12:38;9.83;;;4.37;;
69305;SDS011;56427;51.580;4.656;2023-05-10T12:15:06;8.27;;;4.25;;
69305;SDS011;56427;51.580;4.656;2023-05-10T12:17:47;7.00;;;4.00;;
69305;SDS011;56427;51.580;4.656;2023-05-10T12:20:14;8.95;;;4.38;;
69305;SDS011;56427;51.580;4.656;2023-05-10T12:22:48;9.00;;;4.00;;
69305;SDS011;56427;51.580;4.656;2023-05-10T12:25:15;9.40;;;3.93;;
69305;SDS011;56427;51.580;4.656;2023-05-10T12:27:47;8.40;;;4.07;;
69305;SDS011;56427;51.580;4.656;2023-05-10T12:30:13;7.47;;;3.60;;
69305;SDS011;56427;51.580;4.656;2023-05-10T12:32:51;7.18;;;3.90;;
69305;SDS011;56427;51.580;4.656;2023-05-10T12:35:17;7.38;;;4.10;;
69305;SDS011;56427;51.580;4.656;2023-05-10T12:37:47;5.47;;;3.13;;
69305;SDS011;56427;51.580;4.656;2023-05-10T12:40:15;5.32;;;3.20;;
69305;SDS011;56427;51.580;4.656;2023-05-10T12:42:41;7.37;;;3.83;;
69305;SDS011;56427;51.580;4.656;2023-05-10T12:45:07;5.72;;;3.30;;
69305;SDS011;56427;51.580;4.656;2023-05-10T12:47:33;7.82;;;3.28;;
69305;SDS011;56427;51.580;4.656;2023-05-10T12:49:59;5.07;;;3.43;;
69305;SDS011;56427;51.580;4.656;2023-05-10T12:52:26;6.22;;;3.30;;
69305;SDS011;56427;51.580;4.656;2023-05-10T12:54:51;7.63;;;3.17;;
69305;SDS011;56427;51.580;4.656;2023-05-10T12:57:18;6.73;;;3.30;;
69305;SDS011;56427;51.580;4.656;2023-05-10T12:59:43;7.00;;;2.95;;
69305;SDS011;56427;51.580;4.656;2023-05-10T13:02:09;6.80;;;3.90;;
69305;SDS011;56427;51.580;4.656;2023-05-10T13:04:35;7.57;;;3.20;;
69305;SDS011;56427;51.580;4.656;2023-05-10T13:07:04;6.18;;;3.47;;
69305;SDS011;56427;51.580;4.656;2023-05-10T13:09:32;7.30;;;3.50;;
69305;SDS011;56427;51.580;4.656;2023-05-10T13:11:58;5.32;;;3.08;;
69305;SDS011;56427;51.580;4.656;2023-05-10T13:14:24;9.38;;;3.33;;
69305;SDS011;56427;51.580;4.656;2023-05-10T13:16:51;7.43;;;3.53;;
69305;SDS011;56427;51.580;4.656;2023-05-10T13:19:16;6.72;;;3.80;;
69305;SDS011;56427;51.580;4.656;2023-05-10T13:21:42;6.13;;;3.70;;
69305;SDS011;56427;51.580;4.656;2023-05-10T13:24:09;6.63;;;3.65;;
69305;SDS011;56427;51.580;4.656;2023-05-10T13:26:35;5.75;;;3.80;;
69305;SDS011;56427;51.580;4.656;2023-05-10T13:29:01;5.33;;;3.50;;
69305;SDS011;56427;51.580;4.656;2023-05-10T13:31:27;5.75;;;3.35;;
69305;SDS011;56427;51.580;4.656;2023-05-10T13:33:53;7.83;;;4.00;;
69305;SDS011;56427;51.580;4.656;2023-05-10T13:36:18;7.70;;;4.38;;
69305;SDS011;56427;51.580;4.656;2023-05-10T13:38:43;7.37;;;3.90;;
69305;SDS011;56427;51.580;4.656;2023-05-10T13:41:09;6.27;;;3.90;;
69305;SDS011;56427;51.580;4.656;2023-05-10T13:43:35;7.05;;;3.85;;
69305;SDS011;56427;51.580;4.656;2023-05-10T13:46:01;5.83;;;4.00;;
69305;SDS011;56427;51.580;4.656;2023-05-10T13:48:26;6.57;;;3.80;;
69305;SDS011;56427;51.580;4.656;2023-05-10T13:50:52;7.50;;;4.43;;
69305;SDS011;56427;51.580;4.656;2023-05-10T13:53:17;9.23;;;4.30;;
69305;SDS011;56427;51.580;4.656;2023-05-10T13:55:43;6.18;;;3.53;;
69305;SDS011;56427;51.580;4.656;2023-05-10T13:58:08;6.13;;;3.77;;
69305;SDS011;56427;51.580;4.656;2023-05-10T14:00:34;5.77;;;3.80;;
69305;SDS011;56427;51.580;4.656;2023-05-10T14:02:59;6.90;;;4.23;;
69305;SDS011;56427;51.580;4.656;2023-05-10T14:05:25;7.35;;;4.35;;
69305;SDS011;56427;51.580;4.656;2023-05-10T14:07:51;5.47;;;4.07;;
69305;SDS011;56427;51.580;4.656;2023-05-10T14:10:16;7.07;;;4.78;;
69305;SDS011;56427;51.580;4.656;2023-05-10T14:12:42;9.03;;;4.83;;
69305;SDS011;56427;51.580;4.656;2023-05-10T14:15:07;9.20;;;5.63;;
69305;SDS011;56427;51.580;4.656;2023-05-10T14:17:35;10.77;;;5.40;;
69305;SDS011;56427;51.580;4.656;2023-05-10T14:20:01;8.60;;;4.83;;
69305;SDS011;56427;51.580;4.656;2023-05-10T14:22:26;8.05;;;4.60;;
69305;SDS011;56427;51.580;4.656;2023-05-10T14:24:52;7.40;;;4.03;;
69305;SDS011;56427;51.580;4.656;2023-05-10T14:27:18;7.78;;;4.03;;
69305;SDS011;56427;51.580;4.656;2023-05-10T14:29:43;7.37;;;4.03;;
69305;SDS011;56427;51.580;4.656;2023-05-10T14:32:08;5.97;;;3.10;;
69305;SDS011;56427;51.580;4.656;2023-05-10T14:34:34;7.95;;;3.67;;
69305;SDS011;56427;51.580;4.656;2023-05-10T14:37:00;6.50;;;3.60;;
69305;SDS011;56427;51.580;4.656;2023-05-10T14:39:26;7.57;;;4.65;;
69305;SDS011;56427;51.580;4.656;2023-05-10T14:41:54;12.65;;;8.25;;
69305;SDS011;56427;51.580;4.656;2023-05-10T14:44:20;14.57;;;10.13;;
69305;SDS011;56427;51.580;4.656;2023-05-10T14:46:45;19.53;;;12.20;;
69305;SDS011;56427;51.580;4.656;2023-05-10T14:49:11;20.13;;;12.75;;
69305;SDS011;56427;51.580;4.656;2023-05-10T14:51:36;16.47;;;11.60;;
69305;SDS011;56427;51.580;4.656;2023-05-10T14:54:02;15.82;;;10.52;;
69305;SDS011;56427;51.580;4.656;2023-05-10T14:56:28;16.57;;;10.83;;
69305;SDS011;56427;51.580;4.656;2023-05-10T14:58:53;13.97;;;8.47;;
69305;SDS011;56427;51.580;4.656;2023-05-10T15:01:19;10.43;;;8.55;;
69305;SDS011;56427;51.580;4.656;2023-05-10T15:03:44;12.87;;;7.70;;
69305;SDS011;56427;51.580;4.656;2023-05-10T15:06:10;16.27;;;10.60;;
69305;SDS011;56427;51.580;4.656;2023-05-10T15:08:35;18.50;;;10.35;;
69305;SDS011;56427;51.580;4.656;2023-05-10T15:11:01;18.23;;;9.30;;